sensor_id;sensor_type;location;lat;lon;timestamp;pressure;altitude;pressure_sealevel;temperature;humidity
6194;BME280;3130;41.564;23.280;2023-01-26T00:01:43;99150.00;;;6.21;87.53
6194;BME280;3130;41.564;23.280;2023-01-26T00:04:11;99321.25;;;7.34;87.28
6194;BME280;3130;41.564;23.280;2023-01-26T00:06:48;99327.13;;;7.36;85.21
6194;BME280;3130;41.564;23.280;2023-01-26T00:09:18;99317.81;;;7.14;83.47
6194;BME280;3130;41.564;23.280;2023-01-26T00:11:47;99352.16;;;7.27;81.55
6194;BME280;3130;41.564;23.280;2023-01-26T00:14:14;99029.19;;;5.44;79.79
6194;BME280;3130;41.564;23.280;2023-01-26T00:16:42;99207.81;;;6.40;79.13
6194;BME280;3130;41.564;23.280;2023-01-26T00:19:09;99329.06;;;7.10;78.19
6194;BME280;3130;41.564;23.280;2023-01-26T00:21:37;99280.44;;;6.72;79.11
6194;BME280;3130;41.564;23.280;2023-01-26T00:24:04;99099.81;;;5.59;79.49
6194;BME280;3130;41.564;23.280;2023-01-26T00:26:32;99001.81;;;5.06;79.25
6194;BME280;3130;41.564;23.280;2023-01-26T00:29:01;99114.91;;;5.86;78.66
6194;BME280;3130;41.564;23.280;2023-01-26T00:31:32;99178.97;;;6.18;79.08
6194;BME280;3130;41.564;23.280;2023-01-26T00:34:02;99316.00;;;6.96;79.82
6194;BME280;3130;41.564;23.280;2023-01-26T00:36:35;99310.78;;;6.99;81.62
6194;BME280;3130;41.564;23.280;2023-01-26T00:39:02;99298.81;;;7.01;80.91
6194;BME280;3130;41.564;23.280;2023-01-26T00:41:30;99003.66;;;5.24;80.77
6194;BME280;3130;41.564;23.280;2023-01-26T00:44:15;99287.06;;;6.97;80.60
6194;BME280;3130;41.564;23.280;2023-01-26T00:46:43;99137.88;;;6.06;79.83
6194;BME280;3130;41.564;23.280;2023-01-26T00:49:10;99293.31;;;6.90;79.98
6194;BME280;3130;41.564;23.280;2023-01-26T00:51:37;99293.41;;;6.87;79.38
6194;BME280;3130;41.564;23.280;2023-01-26T00:54:04;98913.75;;;4.61;79.93
6194;BME280;3130;41.564;23.280;2023-01-26T00:56:32;99281.63;;;6.85;80.20
6194;BME280;3130;41.564;23.280;2023-01-26T00:58:59;99135.91;;;5.91;80.23
6194;BME280;3130;41.564;23.280;2023-01-26T01:01:27;99178.97;;;6.18;81.17
6194;BME280;3130;41.564;23.280;2023-01-26T01:03:55;99257.56;;;6.70;80.59
6194;BME280;3130;41.564;23.280;2023-01-26T01:06:22;99287.56;;;6.85;79.16
6194;BME280;3130;41.564;23.280;2023-01-26T01:08:49;99268.56;;;6.71;79.62
6194;BME280;3130;41.564;23.280;2023-01-26T01:11:16;99139.28;;;5.92;79.26
6194;BME280;3130;41.564;23.280;2023-01-26T01:13:44;99277.00;;;6.73;80.29
6194;BME280;3130;41.564;23.280;2023-01-26T01:16:13;99268.66;;;6.69;80.86
6194;BME280;3130;41.564;23.280;2023-01-26T01:18:43;99261.97;;;6.67;82.23
6194;BME280;3130;41.564;23.280;2023-01-26T01:21:12;99238.22;;;6.43;81.62
6194;BME280;3130;41.564;23.280;2023-01-26T01:23:40;99240.19;;;6.37;83.10
6194;BME280;3130;41.564;23.280;2023-01-26T01:26:08;99127.09;;;5.77;83.60
6194;BME280;3130;41.564;23.280;2023-01-26T01:28:36;99181.06;;;6.07;84.50
6194;BME280;3130;41.564;23.280;2023-01-26T01:31:04;99150.34;;;5.91;84.85
6194;BME280;3130;41.564;23.280;2023-01-26T01:33:31;99236.16;;;6.53;84.86
6194;BME280;3130;41.564;23.280;2023-01-26T01:36:02;99126.22;;;5.79;85.20
6194;BME280;3130;41.564;23.280;2023-01-26T01:38:30;99044.41;;;5.22;86.13
6194;BME280;3130;41.564;23.280;2023-01-26T01:40:57;99194.25;;;6.18;86.47
6194;BME280;3130;41.564;23.280;2023-01-26T01:43:26;99226.56;;;6.38;86.79
6194;BME280;3130;41.564;23.280;2023-01-26T01:45:53;99192.63;;;6.16;88.04
6194;BME280;3130;41.564;23.280;2023-01-26T01:48:26;99090.69;;;5.53;87.81
6194;BME280;3130;41.564;23.280;2023-01-26T01:50:56;99020.53;;;5.03;88.05
6194;BME280;3130;41.564;23.280;2023-01-26T01:53:27;99083.56;;;5.40;88.26
6194;BME280;3130;41.564;23.280;2023-01-26T01:55:59;99222.28;;;6.17;88.50
6194;BME280;3130;41.564;23.280;2023-01-26T01:58:29;99148.69;;;5.67;88.72
6194;BME280;3130;41.564;23.280;2023-01-26T02:00:57;99222.69;;;6.06;89.29
6194;BME280;3130;41.564;23.280;2023-01-26T02:03:25;98863.09;;;3.88;88.87
6194;BME280;3130;41.564;23.280;2023-01-26T02:05:56;99166.59;;;5.64;89.05
6194;BME280;3130;41.564;23.280;2023-01-26T02:08:29;99210.16;;;5.79;89.23
6194;BME280;3130;41.564;23.280;2023-01-26T02:10:59;99172.88;;;5.54;89.93
6194;BME280;3130;41.564;23.280;2023-01-26T02:13:28;98981.41;;;4.39;91.32
6194;BME280;3130;41.564;23.280;2023-01-26T02:15:58;99179.63;;;5.55;92.11
6194;BME280;3130;41.564;23.280;2023-01-26T02:18:26;99008.13;;;4.49;92.12
6194;BME280;3130;41.564;23.280;2023-01-26T02:20:57;98924.41;;;4.00;92.31
6194;BME280;3130;41.564;23.280;2023-01-26T02:23:38;99160.63;;;5.42;93.54
6194;BME280;3130;41.564;23.280;2023-01-26T02:26:10;98959.59;;;4.09;93.83
6194;BME280;3130;41.564;23.280;2023-01-26T02:28:39;99153.59;;;5.25;94.73
6194;BME280;3130;41.564;23.280;2023-01-26T02:31:08;99157.66;;;5.29;95.43
6194;BME280;3130;41.564;23.280;2023-01-26T02:33:36;99175.53;;;5.28;96.49
6194;BME280;3130;41.564;23.280;2023-01-26T02:36:04;99160.38;;;5.25;96.42
6194;BME280;3130;41.564;23.280;2023-01-26T02:38:36;99040.97;;;4.53;97.00
6194;BME280;3130;41.564;23.280;2023-01-26T02:41:06;98930.84;;;3.84;97.70
6194;BME280;3130;41.564;23.280;2023-01-26T02:43:35;99158.03;;;5.19;98.90
6194;BME280;3130;41.564;23.280;2023-01-26T02:46:02;99101.75;;;4.82;98.24
6194;BME280;3130;41.564;23.280;2023-01-26T02:48:29;99082.34;;;4.80;98.20
6194;BME280;3130;41.564;23.280;2023-01-26T02:51:13;99104.81;;;4.92;98.88
6194;BME280;3130;41.564;23.280;2023-01-26T02:53:40;99134.91;;;5.02;99.00
6194;BME280;3130;41.564;23.280;2023-01-26T02:56:07;99127.09;;;4.84;98.76
6194;BME280;3130;41.564;23.280;2023-01-26T02:58:35;99015.38;;;4.10;99.58
6194;BME280;3130;41.564;23.280;2023-01-26T03:01:02;99053.28;;;4.39;99.80
6194;BME280;3130;41.564;23.280;2023-01-26T03:03:29;99096.63;;;4.59;99.98
6194;BME280;3130;41.564;23.280;2023-01-26T03:06:11;99063.28;;;4.44;99.89
6194;BME280;3130;41.564;23.280;2023-01-26T03:08:40;98786.00;;;2.68;99.98
6194;BME280;3130;41.564;23.280;2023-01-26T03:11:08;99130.88;;;4.72;100.00
6194;BME280;3130;41.564;23.280;2023-01-26T03:13:36;99003.75;;;4.03;100.00
6194;BME280;3130;41.564;23.280;2023-01-26T03:16:06;98988.44;;;4.06;100.00
6194;BME280;3130;41.564;23.280;2023-01-26T03:18:34;99106.41;;;4.70;100.00
6194;BME280;3130;41.564;23.280;2023-01-26T03:21:19;99131.81;;;4.70;100.00
6194;BME280;3130;41.564;23.280;2023-01-26T03:24:04;99107.47;;;4.64;100.00
6194;BME280;3130;41.564;23.280;2023-01-26T03:26:48;99093.88;;;4.65;100.00
6194;BME280;3130;41.564;23.280;2023-01-26T03:29:34;98993.44;;;4.08;100.00
6194;BME280;3130;41.564;23.280;2023-01-26T03:32:01;99032.03;;;4.42;100.00
6194;BME280;3130;41.564;23.280;2023-01-26T03:34:29;99029.41;;;4.45;100.00
6194;BME280;3130;41.564;23.280;2023-01-26T03:36:56;99089.94;;;4.81;100.00
6194;BME280;3130;41.564;23.280;2023-01-26T03:39:23;99088.28;;;4.80;100.00
6194;BME280;3130;41.564;23.280;2023-01-26T03:42:19;99080.69;;;4.79;100.00
6194;BME280;3130;41.564;23.280;2023-01-26T03:45:06;99089.00;;;4.84;100.00
6194;BME280;3130;41.564;23.280;2023-01-26T03:47:51;99075.25;;;4.65;100.00
6194;BME280;3130;41.564;23.280;2023-01-26T03:50:35;99000.28;;;4.06;100.00
6194;BME280;3130;41.564;23.280;2023-01-26T03:53:21;99044.91;;;4.37;100.00
6194;BME280;3130;41.564;23.280;2023-01-26T03:56:08;99022.03;;;4.13;100.00
6194;BME280;3130;41.564;23.280;2023-01-26T03:58:48;99022.22;;;4.07;100.00
6194;BME280;3130;41.564;23.280;2023-01-26T04:01:18;99083.56;;;4.19;100.00
6194;BME280;3130;41.564;23.280;2023-01-26T04:03:52;98821.47;;;2.39;100.00
6194;BME280;3130;41.564;23.280;2023-01-26T04:06:38;98973.88;;;3.34;100.00
6194;BME280;3130;41.564;23.280;2023-01-26T04:09:29;99090.59;;;4.11;100.00
6194;BME280;3130;41.564;23.280;2023-01-26T04:12:05;98984.72;;;3.39;100.00
6194;BME280;3130;41.564;23.280;2023-01-26T04:14:34;98970.22;;;3.42;100.00
6194;BME280;3130;41.564;23.280;2023-01-26T04:17:20;98969.81;;;3.56;100.00
6194;BME280;3130;41.564;23.280;2023-01-26T04:20:06;98719.75;;;2.01;100.00
6194;BME280;3130;41.564;23.280;2023-01-26T04:22:51;98925.03;;;3.29;100.00
6194;BME280;3130;41.564;23.280;2023-01-26T04:25:25;98888.38;;;3.13;100.00
6194;BME280;3130;41.564;23.280;2023-01-26T04:27:53;98881.53;;;3.16;100.00
6194;BME280;3130;41.564;23.280;2023-01-26T04:30:21;98767.00;;;2.55;100.00
6194;BME280;3130;41.564;23.280;2023-01-26T04:32:51;99058.84;;;4.00;100.00
6194;BME280;3130;41.564;23.280;2023-01-26T04:35:18;98898.03;;;2.73;100.00
6194;BME280;3130;41.564;23.280;2023-01-26T04:37:46;98876.78;;;2.51;100.00
6194;BME280;3130;41.564;23.280;2023-01-26T04:40:13;99104.81;;;3.62;100.00
6194;BME280;3130;41.564;23.280;2023-01-26T04:42:41;99113.66;;;3.49;100.00
6194;BME280;3130;41.564;23.280;2023-01-26T04:45:09;99112.38;;;3.35;100.00
6194;BME280;3130;41.564;23.280;2023-01-26T04:47:36;98975.69;;;2.42;100.00
6194;BME280;3130;41.564;23.280;2023-01-26T04:50:06;99100.94;;;3.20;100.00
6194;BME280;3130;41.564;23.280;2023-01-26T04:52:33;98989.78;;;2.52;100.00
6194;BME280;3130;41.564;23.280;2023-01-26T04:55:00;99049.84;;;3.06;100.00
6194;BME280;3130;41.564;23.280;2023-01-26T04:57:27;99065.16;;;3.32;100.00
6194;BME280;3130;41.564;23.280;2023-01-26T04:59:54;99059.75;;;3.43;100.00
6194;BME280;3130;41.564;23.280;2023-01-26T05:02:21;99091.53;;;3.82;100.00
6194;BME280;3130;41.564;23.280;2023-01-26T05:04:49;99083.50;;;3.95;100.00
6194;BME280;3130;41.564;23.280;2023-01-26T05:07:17;99088.97;;;4.09;100.00
6194;BME280;3130;41.564;23.280;2023-01-26T05:09:44;99052.91;;;3.99;100.00
6194;BME280;3130;41.564;23.280;2023-01-26T05:12:11;99086.09;;;4.19;100.00
6194;BME280;3130;41.564;23.280;2023-01-26T05:15:07;99085.94;;;4.24;100.00
6194;BME280;3130;41.564;23.280;2023-01-26T05:17:35;99085.16;;;4.22;100.00
6194;BME280;3130;41.564;23.280;2023-01-26T05:20:02;99064.81;;;3.97;100.00
6194;BME280;3130;41.564;23.280;2023-01-26T05:22:31;99079.75;;;4.06;100.00
6194;BME280;3130;41.564;23.280;2023-01-26T05:24:58;99013.72;;;3.56;100.00
6194;BME280;3130;41.564;23.280;2023-01-26T05:27:25;99027.25;;;3.55;100.00
6194;BME280;3130;41.564;23.280;2023-01-26T05:29:52;99052.44;;;3.61;100.00
6194;BME280;3130;41.564;23.280;2023-01-26T05:32:25;99090.47;;;3.61;100.00
6194;BME280;3130;41.564;23.280;2023-01-26T05:34:52;99082.38;;;3.49;100.00
6194;BME280;3130;41.564;23.280;2023-01-26T05:37:19;98893.59;;;2.23;100.00
6194;BME280;3130;41.564;23.280;2023-01-26T05:39:48;99074.88;;;3.17;100.00
6194;BME280;3130;41.564;23.280;2023-01-26T05:42:15;99078.72;;;3.01;100.00
6194;BME280;3130;41.564;23.280;2023-01-26T05:44:42;98986.47;;;2.49;100.00
6194;BME280;3130;41.564;23.280;2023-01-26T05:47:19;99075.31;;;3.02;100.00
6194;BME280;3130;41.564;23.280;2023-01-26T05:49:46;99076.38;;;2.94;100.00
6194;BME280;3130;41.564;23.280;2023-01-26T05:52:17;98748.03;;;0.91;100.00
6194;BME280;3130;41.564;23.280;2023-01-26T05:54:49;98778.59;;;1.13;100.00
6194;BME280;3130;41.564;23.280;2023-01-26T05:57:20;98931.78;;;1.83;100.00
6194;BME280;3130;41.564;23.280;2023-01-26T05:59:47;98950.75;;;1.98;100.00
6194;BME280;3130;41.564;23.280;2023-01-26T06:02:20;98836.75;;;1.44;100.00
6194;BME280;3130;41.564;23.280;2023-01-26T06:04:47;99062.34;;;2.82;100.00
6194;BME280;3130;41.564;23.280;2023-01-26T06:07:14;99027.53;;;2.60;100.00
6194;BME280;3130;41.564;23.280;2023-01-26T06:09:42;98850.00;;;1.52;100.00
6194;BME280;3130;41.564;23.280;2023-01-26T06:12:16;98820.41;;;1.25;100.00
6194;BME280;3130;41.564;23.280;2023-01-26T06:14:44;99058.56;;;2.66;100.00
6194;BME280;3130;41.564;23.280;2023-01-26T06:17:12;99060.31;;;2.64;100.00
6194;BME280;3130;41.564;23.280;2023-01-26T06:19:39;98990.53;;;2.24;100.00
6194;BME280;3130;41.564;23.280;2023-01-26T06:22:07;99022.28;;;2.35;100.00
6194;BME280;3130;41.564;23.280;2023-01-26T06:24:34;99049.31;;;2.65;100.00
6194;BME280;3130;41.564;23.280;2023-01-26T06:27:02;99047.44;;;2.72;100.00
6194;BME280;3130;41.564;23.280;2023-01-26T06:29:32;98992.50;;;2.45;100.00
6194;BME280;3130;41.564;23.280;2023-01-26T06:31:59;99049.75;;;2.81;100.00
6194;BME280;3130;41.564;23.280;2023-01-26T06:34:27;99058.78;;;2.89;100.00
6194;BME280;3130;41.564;23.280;2023-01-26T06:36:54;99025.28;;;2.80;100.00
6194;BME280;3130;41.564;23.280;2023-01-26T06:39:21;98988.78;;;2.58;100.00
6194;BME280;3130;41.564;23.280;2023-01-26T06:41:48;98900.25;;;1.96;100.00
6194;BME280;3130;41.564;23.280;2023-01-26T06:44:15;99041.31;;;2.80;100.00
6194;BME280;3130;41.564;23.280;2023-01-26T06:46:43;99062.00;;;2.94;100.00
6194;BME280;3130;41.564;23.280;2023-01-26T06:49:11;98822.47;;;1.43;100.00
6194;BME280;3130;41.564;23.280;2023-01-26T06:51:47;99069.78;;;2.88;100.00
6194;BME280;3130;41.564;23.280;2023-01-26T06:54:18;99015.31;;;2.43;100.00
6194;BME280;3130;41.564;23.280;2023-01-26T06:56:45;99079.44;;;2.74;100.00
6194;BME280;3130;41.564;23.280;2023-01-26T06:59:12;99027.16;;;2.41;100.00
6194;BME280;3130;41.564;23.280;2023-01-26T07:01:42;99056.78;;;2.70;100.00
6194;BME280;3130;41.564;23.280;2023-01-26T07:04:13;99083.81;;;2.69;100.00
6194;BME280;3130;41.564;23.280;2023-01-26T07:06:40;99014.38;;;2.15;100.00
6194;BME280;3130;41.564;23.280;2023-01-26T07:09:08;99055.31;;;2.29;100.00
6194;BME280;3130;41.564;23.280;2023-01-26T07:11:35;99026.59;;;1.97;100.00
6194;BME280;3130;41.564;23.280;2023-01-26T07:14:02;99063.28;;;2.13;100.00
6194;BME280;3130;41.564;23.280;2023-01-26T07:16:30;99065.56;;;2.25;100.00
6194;BME280;3130;41.564;23.280;2023-01-26T07:18:57;99076.09;;;2.42;100.00
6194;BME280;3130;41.564;23.280;2023-01-26T07:21:25;99061.53;;;2.50;100.00
6194;BME280;3130;41.564;23.280;2023-01-26T07:23:54;98970.97;;;1.98;100.00
6194;BME280;3130;41.564;23.280;2023-01-26T07:26:22;98915.34;;;1.67;100.00
6194;BME280;3130;41.564;23.280;2023-01-26T07:28:49;99038.75;;;2.50;100.00
6194;BME280;3130;41.564;23.280;2023-01-26T07:31:16;98964.78;;;2.10;100.00
6194;BME280;3130;41.564;23.280;2023-01-26T07:33:43;99021.75;;;2.55;100.00
6194;BME280;3130;41.564;23.280;2023-01-26T07:36:10;99034.91;;;2.67;100.00
6194;BME280;3130;41.564;23.280;2023-01-26T07:38:39;98977.34;;;2.45;100.00
6194;BME280;3130;41.564;23.280;2023-01-26T07:41:09;99000.00;;;2.78;100.00
6194;BME280;3130;41.564;23.280;2023-01-26T07:43:38;99020.75;;;2.91;100.00
6194;BME280;3130;41.564;23.280;2023-01-26T07:46:06;98991.69;;;2.75;100.00
6194;BME280;3130;41.564;23.280;2023-01-26T07:48:34;98835.75;;;1.81;100.00
6194;BME280;3130;41.564;23.280;2023-01-26T07:51:03;99003.97;;;2.88;100.00
6194;BME280;3130;41.564;23.280;2023-01-26T07:53:31;99013.31;;;2.85;100.00
6194;BME280;3130;41.564;23.280;2023-01-26T07:56:09;99015.13;;;2.81;100.00
6194;BME280;3130;41.564;23.280;2023-01-26T07:58:36;98983.22;;;2.76;100.00
6194;BME280;3130;41.564;23.280;2023-01-26T08:01:05;99012.81;;;3.02;100.00
6194;BME280;3130;41.564;23.280;2023-01-26T08:03:32;99008.53;;;3.04;100.00
6194;BME280;3130;41.564;23.280;2023-01-26T08:05:59;99016.31;;;2.98;100.00
6194;BME280;3130;41.564;23.280;2023-01-26T08:08:27;99019.75;;;2.96;100.00
6194;BME280;3130;41.564;23.280;2023-01-26T08:10:55;98956.63;;;2.61;100.00
6194;BME280;3130;41.564;23.280;2023-01-26T08:13:24;99011.91;;;3.05;100.00
6194;BME280;3130;41.564;23.280;2023-01-26T08:15:52;98843.78;;;1.97;100.00
6194;BME280;3130;41.564;23.280;2023-01-26T08:18:19;99011.84;;;3.06;100.00
6194;BME280;3130;41.564;23.280;2023-01-26T08:20:50;98976.06;;;2.90;100.00
6194;BME280;3130;41.564;23.280;2023-01-26T08:23:18;98724.31;;;1.31;100.00
6194;BME280;3130;41.564;23.280;2023-01-26T08:25:46;98975.44;;;2.82;100.00
6194;BME280;3130;41.564;23.280;2023-01-26T08:28:13;98995.16;;;2.99;100.00
6194;BME280;3130;41.564;23.280;2023-01-26T08:30:41;98953.63;;;2.47;100.00
6194;BME280;3130;41.564;23.280;2023-01-26T08:33:08;99001.94;;;2.70;100.00
6194;BME280;3130;41.564;23.280;2023-01-26T08:35:35;98990.63;;;2.82;100.00
6194;BME280;3130;41.564;23.280;2023-01-26T08:38:03;98988.78;;;2.88;100.00
6194;BME280;3130;41.564;23.280;2023-01-26T08:40:30;98974.63;;;2.81;100.00
6194;BME280;3130;41.564;23.280;2023-01-26T08:42:59;98960.88;;;2.90;100.00
6194;BME280;3130;41.564;23.280;2023-01-26T08:45:27;98956.50;;;2.95;100.00
6194;BME280;3130;41.564;23.280;2023-01-26T08:47:55;98952.22;;;2.97;100.00
6194;BME280;3130;41.564;23.280;2023-01-26T08:50:23;98939.19;;;3.08;100.00
6194;BME280;3130;41.564;23.280;2023-01-26T08:52:50;98939.75;;;3.18;100.00
6194;BME280;3130;41.564;23.280;2023-01-26T08:55:17;98938.81;;;3.20;100.00
6194;BME280;3130;41.564;23.280;2023-01-26T08:57:45;98834.31;;;2.61;100.00
6194;BME280;3130;41.564;23.280;2023-01-26T09:00:13;98947.44;;;3.42;100.00
6194;BME280;3130;41.564;23.280;2023-01-26T09:02:41;98891.13;;;3.07;100.00
6194;BME280;3130;41.564;23.280;2023-01-26T09:05:10;98947.34;;;3.45;100.00
6194;BME280;3130;41.564;23.280;2023-01-26T09:07:37;98939.56;;;3.51;100.00
6194;BME280;3130;41.564;23.280;2023-01-26T09:10:05;98865.09;;;3.02;100.00
6194;BME280;3130;41.564;23.280;2023-01-26T09:12:32;98898.19;;;2.96;100.00
6194;BME280;3130;41.564;23.280;2023-01-26T09:14:59;98928.66;;;2.95;100.00
6194;BME280;3130;41.564;23.280;2023-01-26T09:17:26;98914.47;;;2.89;100.00
6194;BME280;3130;41.564;23.280;2023-01-26T09:19:53;98812.63;;;2.25;100.00
6194;BME280;3130;41.564;23.280;2023-01-26T09:22:22;98918.75;;;2.87;100.00
6194;BME280;3130;41.564;23.280;2023-01-26T09:24:49;98920.22;;;2.94;100.00
6194;BME280;3130;41.564;23.280;2023-01-26T09:27:16;98918.75;;;2.87;100.00
6194;BME280;3130;41.564;23.280;2023-01-26T09:29:43;98756.53;;;1.82;100.00
6194;BME280;3130;41.564;23.280;2023-01-26T09:32:10;98875.06;;;2.52;100.00
6194;BME280;3130;41.564;23.280;2023-01-26T09:34:37;98877.78;;;2.46;100.00
6194;BME280;3130;41.564;23.280;2023-01-26T09:37:05;98900.72;;;2.69;100.00
6194;BME280;3130;41.564;23.280;2023-01-26T09:39:34;98890.25;;;2.81;100.00
6194;BME280;3130;41.564;23.280;2023-01-26T09:42:20;98889.75;;;2.97;100.00
6194;BME280;3130;41.564;23.280;2023-01-26T09:45:02;98883.00;;;2.96;100.00
6194;BME280;3130;41.564;23.280;2023-01-26T09:47:44;98866.31;;;2.91;100.00
6194;BME280;3130;41.564;23.280;2023-01-26T09:50:18;98875.00;;;2.82;100.00
6194;BME280;3130;41.564;23.280;2023-01-26T09:52:51;98872.19;;;2.91;100.00
6194;BME280;3130;41.564;23.280;2023-01-26T09:55:22;98831.81;;;2.59;100.00
6194;BME280;3130;41.564;23.280;2023-01-26T09:57:53;98860.75;;;2.80;100.00
6194;BME280;3130;41.564;23.280;2023-01-26T10:00:26;98690.81;;;1.84;100.00
6194;BME280;3130;41.564;23.280;2023-01-26T10:03:07;98611.09;;;1.45;100.00
6194;BME280;3130;41.564;23.280;2023-01-26T10:05:40;98821.84;;;2.82;100.00
6194;BME280;3130;41.564;23.280;2023-01-26T10:08:11;98817.81;;;3.02;100.00
6194;BME280;3130;41.564;23.280;2023-01-26T10:10:43;98842.13;;;3.34;100.00
6194;BME280;3130;41.564;23.280;2023-01-26T10:13:13;98840.44;;;3.59;100.00
6194;BME280;3130;41.564;23.280;2023-01-26T10:15:43;98831.22;;;3.81;100.00
6194;BME280;3130;41.564;23.280;2023-01-26T10:18:17;98829.66;;;4.01;100.00
6194;BME280;3130;41.564;23.280;2023-01-26T10:20:48;98824.06;;;4.14;100.00
6194;BME280;3130;41.564;23.280;2023-01-26T10:23:21;98661.94;;;3.18;100.00
6194;BME280;3130;41.564;23.280;2023-01-26T10:25:51;98704.28;;;3.15;100.00
6194;BME280;3130;41.564;23.280;2023-01-26T10:28:24;98816.13;;;3.78;100.00
6194;BME280;3130;41.564;23.280;2023-01-26T10:30:53;98788.75;;;3.63;100.00
6194;BME280;3130;41.564;23.280;2023-01-26T10:33:24;98793.69;;;3.90;100.00
6194;BME280;3130;41.564;23.280;2023-01-26T10:35:52;98811.19;;;4.20;100.00
6194;BME280;3130;41.564;23.280;2023-01-26T10:38:26;98805.09;;;4.47;100.00
6194;BME280;3130;41.564;23.280;2023-01-26T10:40:55;98798.00;;;4.77;100.00
6194;BME280;3130;41.564;23.280;2023-01-26T10:43:24;98714.66;;;4.45;100.00
6194;BME280;3130;41.564;23.280;2023-01-26T10:45:51;98786.63;;;4.87;99.64
6194;BME280;3130;41.564;23.280;2023-01-26T10:48:20;98747.44;;;4.51;97.60
6194;BME280;3130;41.564;23.280;2023-01-26T10:50:49;98792.72;;;4.83;96.47
6194;BME280;3130;41.564;23.280;2023-01-26T10:53:22;98719.59;;;4.69;96.25
6194;BME280;3130;41.564;23.280;2023-01-26T10:56:02;98707.44;;;4.77;95.83
6194;BME280;3130;41.564;23.280;2023-01-26T10:58:42;98442.72;;;3.11;95.28
6194;BME280;3130;41.564;23.280;2023-01-26T11:01:11;98445.25;;;3.33;94.85
6194;BME280;3130;41.564;23.280;2023-01-26T11:03:40;98624.63;;;4.53;94.10
6194;BME280;3130;41.564;23.280;2023-01-26T11:06:13;98453.38;;;3.41;92.49
6194;BME280;3130;41.564;23.280;2023-01-26T11:08:42;98736.66;;;5.07;92.45
6194;BME280;3130;41.564;23.280;2023-01-26T11:11:24;98717.63;;;4.76;93.30
6194;BME280;3130;41.564;23.280;2023-01-26T11:14:09;98727.69;;;4.98;93.46
6194;BME280;3130;41.564;23.280;2023-01-26T11:16:37;98714.56;;;5.09;93.65
6194;BME280;3130;41.564;23.280;2023-01-26T11:19:11;98673.47;;;4.80;94.13
6194;BME280;3130;41.564;23.280;2023-01-26T11:21:40;98666.56;;;4.83;94.03
6194;BME280;3130;41.564;23.280;2023-01-26T11:24:14;98678.53;;;4.99;94.13
6194;BME280;3130;41.564;23.280;2023-01-26T11:27:08;98417.41;;;3.53;93.75
6194;BME280;3130;41.564;23.280;2023-01-26T11:30:03;98491.38;;;4.03;93.80
6194;BME280;3130;41.564;23.280;2023-01-26T11:32:42;98474.22;;;3.69;93.15
6194;BME280;3130;41.564;23.280;2023-01-26T11:35:17;98679.84;;;4.90;94.48
6194;BME280;3130;41.564;23.280;2023-01-26T11:37:47;98677.78;;;4.78;93.80
6194;BME280;3130;41.564;23.280;2023-01-26T11:40:25;98344.88;;;2.88;94.42
6194;BME280;3130;41.564;23.280;2023-01-26T11:43:08;98655.34;;;4.67;95.80
6194;BME280;3130;41.564;23.280;2023-01-26T11:46:00;98328.06;;;2.65;96.07
6194;BME280;3130;41.564;23.280;2023-01-26T11:48:36;98656.75;;;4.74;96.91
6194;BME280;3130;41.564;23.280;2023-01-26T11:51:13;98533.59;;;4.04;97.19
6194;BME280;3130;41.564;23.280;2023-01-26T11:53:58;98459.22;;;3.63;97.65
6194;BME280;3130;41.564;23.280;2023-01-26T11:56:37;98648.34;;;4.52;97.13
6194;BME280;3130;41.564;23.280;2023-01-26T11:59:13;98649.66;;;4.41;96.67
6194;BME280;3130;41.564;23.280;2023-01-26T12:01:46;98578.16;;;4.11;97.48
6194;BME280;3130;41.564;23.280;2023-01-26T12:04:18;98626.72;;;4.64;98.73
6194;BME280;3130;41.564;23.280;2023-01-26T12:06:49;98562.31;;;4.46;98.93
6194;BME280;3130;41.564;23.280;2023-01-26T12:09:23;98598.91;;;4.61;98.02
6194;BME280;3130;41.564;23.280;2023-01-26T12:11:59;98618.34;;;4.62;98.05
6194;BME280;3130;41.564;23.280;2023-01-26T12:14:36;98600.78;;;4.57;97.47
6194;BME280;3130;41.564;23.280;2023-01-26T12:17:32;98591.19;;;4.64;98.70
6194;BME280;3130;41.564;23.280;2023-01-26T12:20:18;98546.38;;;4.43;98.49
6194;BME280;3130;41.564;23.280;2023-01-26T12:22:52;98601.66;;;4.56;98.07
6194;BME280;3130;41.564;23.280;2023-01-26T12:25:27;98580.69;;;4.51;97.92
6194;BME280;3130;41.564;23.280;2023-01-26T12:28:05;98420.75;;;3.75;97.73
6194;BME280;3130;41.564;23.280;2023-01-26T12:30:44;98361.28;;;3.42;97.71
6194;BME280;3130;41.564;23.280;2023-01-26T12:33:14;98423.84;;;4.01;98.51
6194;BME280;3130;41.564;23.280;2023-01-26T12:36:04;98481.28;;;4.42;98.07
6194;BME280;3130;41.564;23.280;2023-01-26T12:38:41;98504.38;;;4.56;97.41
6194;BME280;3130;41.564;23.280;2023-01-26T12:41:13;98550.75;;;4.79;96.76
6194;BME280;3130;41.564;23.280;2023-01-26T12:44:06;98357.16;;;3.79;97.93
6194;BME280;3130;41.564;23.280;2023-01-26T12:46:40;98534.34;;;4.86;97.68
6194;BME280;3130;41.564;23.280;2023-01-26T12:49:14;98238.13;;;2.78;97.30
6194;BME280;3130;41.564;23.280;2023-01-26T12:51:48;98398.28;;;4.05;98.48
6194;BME280;3130;41.564;23.280;2023-01-26T12:54:21;98523.63;;;4.80;98.39
6194;BME280;3130;41.564;23.280;2023-01-26T12:56:54;98518.16;;;4.89;98.63
6194;BME280;3130;41.564;23.280;2023-01-26T12:59:30;98213.50;;;3.01;97.69
6194;BME280;3130;41.564;23.280;2023-01-26T13:02:07;98494.38;;;4.71;97.87
6194;BME280;3130;41.564;23.280;2023-01-26T13:04:39;98463.47;;;4.43;95.70
6194;BME280;3130;41.564;23.280;2023-01-26T13:07:47;98366.28;;;3.63;94.88
6194;BME280;3130;41.564;23.280;2023-01-26T13:10:47;98235.03;;;2.92;94.88
6194;BME280;3130;41.564;23.280;2023-01-26T13:13:32;98389.25;;;3.80;94.36
6194;BME280;3130;41.564;23.280;2023-01-26T13:16:30;98391.53;;;3.86;95.05
6194;BME280;3130;41.564;23.280;2023-01-26T13:19:00;98398.94;;;3.91;94.42
6194;BME280;3130;41.564;23.280;2023-01-26T13:21:42;98301.09;;;3.27;94.42
6194;BME280;3130;41.564;23.280;2023-01-26T13:24:43;98158.81;;;2.38;92.84
6194;BME280;3130;41.564;23.280;2023-01-26T13:27:28;98483.19;;;4.37;93.46
6194;BME280;3130;41.564;23.280;2023-01-26T13:29:57;98500.25;;;4.53;92.48
6194;BME280;3130;41.564;23.280;2023-01-26T13:33:01;98325.31;;;3.54;90.77
6194;BME280;3130;41.564;23.280;2023-01-26T13:35:35;98401.41;;;3.92;91.13
6194;BME280;3130;41.564;23.280;2023-01-26T13:38:10;98278.91;;;3.12;90.95
6194;BME280;3130;41.564;23.280;2023-01-26T13:40:44;98261.88;;;2.96;90.65